Date,TemperatureHighF,TemperatureAvgF,TemperatureLowF,DewpointHighF,DewpointAvgF,DewpointLowF,HumidityHigh,HumidityAvg,HumidityLow,PressureMaxIn,PressureMinIn,WindSpeedMaxMPH,WindSpeedAvgMPH,GustSpeedMaxMPH,PrecipitationSumIn
2013-1-1,33.3,25.8,15.4,24.2,13.8,4.2,82,61,46,30.11,29.94,14,4,14,0.00
2013-1-2,24.8,15.2,7.2,8.2,1.9,-5.2,64,55,47,30.18,30.02,12,5,12,0.00
2013-1-3,32.2,23.9,12.7,21.9,10.9,-2.1,70,58,49,30.16,30.01,17,7,17,0.00
2013-1-4,28.0,21.6,12.6,16.2,10.4,2.8,71,62,52,30.24,30.10,22,10,22,0.00
2013-1-5,34.2,27.9,19.2,27.3,19.0,10.4,82,69,55,30.19,29.92,19,7,19,0.00
2013-1-6,34.9,31.3,26.6,27.9,22.9,16.0,77,71,63,30.20,29.83,21,9,21,0.00
2013-1-7,37.4,27.1,16.9,22.8,17.1,9.8,78,67,51,30.37,30.08,21,6,21,0.00
2013-1-8,50.4,34.9,25.2,28.9,21.8,15.9,76,60,41,30.20,30.02,14,6,14,0.00
2013-1-9,49.1,41.0,33.8,31.0,24.7,10.8,73,55,29,30.38,29.98,21,8,21,0.00
2013-1-10,40.3,34.4,27.9,33.0,22.7,14.7,85,63,49,30.48,29.96,28,10,28,0.45
2013-1-11,55.8,48.8,37.4,50.1,44.0,34.5,91,83,73,29.97,29.67,27,12,27,0.34
2013-1-12,61.2,51.7,42.1,47.3,43.8,37.9,85,75,57,29.92,29.76,18,7,18,0.32
2013-1-13,39.7,33.4,21.0,35.9,28.7,13.6,87,83,72,30.08,29.71,20,5,20,0.72
2013-1-14,23.9,20.3,16.2,13.8,10.6,6.5,73,66,60,30.41,30.08,0,0,0,0.00
2013-1-15,29.5,22.5,14.7,18.7,12.0,6.7,74,64,52,30.41,30.04,0,0,0,0.01
2013-1-16,37.0,29.0,20.1,22.2,15.9,8.7,75,60,33,30.04,29.88,25,6,25,0.00
2013-1-17,36.0,29.9,20.8,24.3,15.7,5.4,75,57,39,30.30,29.94,29,9,29,1.23
2013-1-18,38.3,29.2,19.8,22.0,13.5,6.0,66,53,43,30.39,29.93,28,11,28,0.01
2013-1-19,49.6,42.0,36.3,32.0,27.1,19.8,65,57,45,29.93,29.67,36,15,36,0.04
2013-1-20,41.2,22.6,17.6,27.6,4.5,0.2,59,46,32,30.19,29.68,38,14,38,0.47
2013-1-21,19.9,15.0,6.1,2.6,-6.6,-18.7,48,39,23,30.11,29.99,29,11,29,0.47
2013-1-22,14.9,7.6,1.8,-12.9,-16.4,-23.7,45,34,20,30.31,30.08,21,9,21,0.00
2013-1-23,18.5,13.8,7.7,9.0,-5.6,-15.3,69,43,25,30.25,30.05,22,9,22,0.00
2013-1-24,20.7,14.7,7.5,9.2,-2.7,-13.6,70,48,24,30.65,30.09,16,6,16,0.00
2013-1-25,25.2,20.9,17.4,16.2,8.2,-1.5,72,58,43,30.34,29.98,21,7,21,0.00
2013-1-26,32.0,25.3,23.2,17.6,13.6,10.2,68,61,50,30.37,29.99,16,6,16,0.00
2013-1-27,34.0,27.1,21.2,29.1,16.3,10.1,82,64,54,30.39,29.96,22,8,22,0.00
2013-1-28,49.6,43.9,34.0,47.7,41.7,29.1,94,92,82,29.98,29.86,23,8,23,0.06
2013-1-29,57.9,54.5,41.7,54.9,52.3,40.1,96,92,86,29.90,29.39,36,12,36,0.93
2013-1-30,55.9,44.9,27.5,53.0,41.5,19.8,95,88,72,29.44,29.23,31,10,31,1.25
2013-1-31,27.5,17.9,8.8,20.0,6.6,-3.3,75,61,48,29.97,29.44,39,9,39,0.00
2013-2-1,15.3,9.4,3.0,1.0,-5.7,-10.0,58,50,41,30.36,29.95,17,6,17,0.00
2013-2-2,25.3,19.1,14.0,16.9,10.4,0.8,78,68,55,30.14,29.93,13,3,13,0.00
2013-2-3,22.8,16.5,11.1,11.4,4.9,0.1,67,60,51,29.99,29.86,19,2,19,0.00
2013-2-4,26.2,22.0,16.9,17.7,14.2,5.8,79,72,61,29.99,29.83,11,2,11,0.00
2013-2-5,30.9,24.4,14.2,25.6,17.4,6.9,84,75,58,29.95,29.83,20,4,20,0.05
2013-2-6,36.1,30.2,24.8,22.6,16.8,12.7,77,58,42,30.27,29.93,16,1,16,0.01
2013-2-7,42.1,33.3,27.3,29.4,23.4,18.1,82,67,55,30.15,29.73,17,8,17,0.13
2013-2-8,35.1,31.6,26.2,30.2,21.8,12.8,87,68,50,30.31,29.72,27,9,27,0.05
2013-2-9,37.4,28.6,19.6,20.7,17.0,12.9,80,63,48,30.39,30.10,19,7,19,0.00
2013-2-10,48.2,38.4,30.4,45.3,29.4,18.4,92,70,59,30.10,29.53,30,12,30,0.14
2013-2-11,49.6,36.8,30.6,44.9,23.5,16.9,88,59,49,29.92,29.51,38,17,38,0.13
2013-2-12,39.0,30.5,27.5,21.6,17.5,14.8,65,59,44,30.13,29.87,18,8,18,0.00
2013-2-13,46.9,33.9,22.8,26.1,20.7,14.8,76,60,40,29.88,29.71,16,4,16,0.00
2013-2-14,46.0,36.9,32.7,34.7,26.3,16.1,80,66,48,29.91,29.69,27,8,27,0.00
2013-2-15,33.3,28.4,23.5,21.9,14.2,5.4,74,56,38,30.17,29.86,21,6,21,0.00
2013-2-16,23.9,19.4,12.9,12.8,6.0,-6.1,66,56,34,30.09,30.00,26,9,26,0.00
2013-2-17,32.5,21.4,11.7,12.5,3.7,-9.5,68,50,21,30.21,30.05,14,5,14,0.00
2013-2-18,54.5,38.9,23.7,41.6,22.8,5.4,82,54,41,30.07,29.46,35,14,35,0.27
2013-2-19,45.1,21.4,14.4,39.6,11.7,2.1,83,66,56,30.05,29.42,38,16,38,0.12
2013-2-20,24.6,18.1,13.6,13.1,8.1,3.2,71,64,57,30.29,30.00,22,10,22,0.00
2013-2-21,26.4,23.5,19.8,13.8,12.0,9.2,69,61,55,30.39,29.99,33,10,33,1.31
2013-2-22,33.6,27.9,20.8,30.0,21.8,10.6,87,78,61,30.01,29.84,30,9,30,1.45
2013-2-23,32.4,27.3,25.2,19.3,14.7,9.9,69,59,45,29.94,29.84,18,8,18,0.00
2013-2-24,40.1,29.4,20.5,18.7,15.0,12.3,71,56,40,30.10,29.88,16,5,16,0.00
2013-2-25,43.0,33.0,23.7,23.7,19.5,14.7,70,58,43,30.22,29.94,17,6,17,0.00
2013-2-26,34.2,32.8,30.9,30.2,24.6,17.5,87,73,51,29.94,29.39,30,8,30,1.20
2013-2-27,34.2,32.8,31.8,30.7,29.4,28.3,88,87,84,29.62,29.38,13,3,13,0.28
2013-2-28,39.7,34.5,31.1,30.3,27.6,23.3,88,76,63,29.93,29.53,17,8,17,0.05
2013-3-1,37.2,30.5,25.0,25.2,18.8,10.6,78,62,46,30.11,29.89,19,7,19,0.00
2013-3-2,35.8,28.3,24.6,14.2,11.2,7.7,56,49,37,30.11,30.02,24,7,24,0.00
2013-3-3,34.7,27.1,20.8,13.9,9.4,6.4,58,48,38,30.09,30.01,19,7,19,0.00
2013-3-4,36.9,28.1,18.3,23.4,11.8,6.3,76,52,33,30.18,29.98,14,5,14,0.00
2013-3-5,33.1,29.8,26.8,26.1,22.7,18.5,87,75,56,29.99,29.70,30,12,30,0.00
2013-3-6,36.1,31.7,26.2,25.5,22.5,19.8,83,69,58,30.20,29.77,17,7,17,0.01
2013-3-7,40.3,34.0,27.9,27.4,22.6,15.4,81,65,45,30.38,30.15,14,6,14,0.00
2013-3-8,41.5,31.6,21.7,21.8,16.8,14.2,74,56,40,30.51,30.30,8,3,8,0.00
2013-3-9,42.8,35.6,27.1,30.6,23.1,13.0,69,61,52,30.30,29.86,23,10,23,0.01
2013-3-10,59.2,50.0,42.3,40.0,34.6,29.1,66,57,48,29.88,29.65,22,8,22,0.02
2013-3-11,54.1,44.7,33.6,47.1,38.5,27.0,91,79,52,29.72,29.57,27,10,27,0.08
2013-3-12,36.3,32.5,30.0,27.8,22.9,17.5,83,69,49,29.95,29.71,26,11,26,0.00
2013-3-13,30.9,26.9,24.4,22.7,13.8,6.0,77,59,40,30.27,29.87,27,12,27,0.04
2013-3-14,46.4,32.6,23.0,24.6,11.5,-0.2,73,45,19,30.35,30.07,15,6,15,0.00
2013-3-15,50.5,38.4,29.8,38.5,30.6,25.0,89,75,49,30.07,29.75,12,5,12,0.24
2013-3-16,41.4,35.4,28.8,38.4,29.6,18.4,93,80,61,30.02,29.56,14,6,14,0.00
2013-3-17,36.7,30.9,28.0,19.8,16.0,11.6,66,55,39,30.18,29.96,27,10,27,0.02
2013-3-18,34.9,31.2,27.7,31.1,24.4,14.7,86,77,58,29.97,29.57,35,13,35,0.05
2013-3-19,37.4,27.5,20.3,14.6,7.6,0.7,60,45,24,30.00,29.67,34,17,34,0.12
2013-3-20,29.3,24.2,17.8,10.3,2.1,-12.9,66,41,19,30.05,29.91,24,12,24,0.00
2013-3-21,33.8,23.7,14.2,15.2,8.3,4.6,73,54,32,30.01,29.24,21,8,21,0.06
2013-3-22,44.6,31.1,20.5,18.3,7.8,-5.7,67,43,18,30.07,29.94,17,5,17,0.00
2013-3-23,42.8,32.1,24.1,18.3,15.1,10.6,65,51,36,30.10,29.91,17,5,17,0.00
2013-3-24,36.9,31.9,27.5,21.6,18.2,13.4,67,58,41,29.93,29.52,34,11,34,0.11
2013-3-25,36.7,32.0,27.7,27.4,23.2,19.6,86,71,51,29.93,29.49,25,9,25,0.05
2013-3-26,41.9,35.2,32.2,28.0,23.7,19.1,76,64,44,30.19,29.91,26,9,26,0.00
2013-3-27,44.4,36.5,31.8,28.1,20.0,6.3,74,55,24,30.31,30.13,22,8,22,0.00
2013-3-28,54.3,39.8,28.2,21.3,11.0,0.7,57,36,15,30.35,30.20,19,5,19,0.00
2013-3-29,56.5,42.6,29.1,20.4,9.4,-2.1,62,32,13,30.35,30.19,21,4,21,0.00
2013-3-30,58.3,44.6,28.9,29.6,19.1,8.3,57,39,21,30.20,29.86,17,4,17,0.00
2013-3-31,64.2,50.0,-1.8,45.8,30.3,-12.1,90,53,16,29.86,29.65,28,9,28,0.01
2013-4-1,40.5,34.7,27.5,26.4,10.1,-6.2,63,40,18,30.12,29.75,27,10,27,0.00
2013-4-2,43.5,33.8,23.5,14.8,2.6,-10.6,61,33,14,30.25,30.05,24,7,24,0.00
2013-4-3,50.2,36.9,23.7,17.8,2.3,-8.7,47,29,13,30.43,30.19,16,4,16,0.00
2013-4-4,60.4,43.7,29.5,16.9,6.6,-4.0,53,29,11,30.28,29.96,14,4,14,0.00
2013-4-5,55.9,44.4,33.3,28.2,15.5,-6.1,64,38,11,30.19,29.93,23,8,23,0.00
2013-4-6,65.5,49.5,33.1,35.8,22.5,15.2,61,39,20,30.14,29.69,36,16,36,1.23
2013-4-7,62.2,55.1,46.4,46.1,37.7,30.9,78,55,36,29.95,29.62,35,10,35,0.05
2013-4-8,74.8,54.4,43.7,54.2,41.3,31.6,87,64,39,30.04,29.75,38,12,38,0.09
2013-4-9,77.9,60.7,46.2,56.9,47.6,39.7,81,64,44,30.05,29.92,27,9,27,0.00
2013-4-10,61.0,49.9,43.7,52.0,45.7,41.2,92,86,70,29.99,29.82,21,8,21,0.24
2013-4-11,44.8,43.1,40.1,42.8,41.3,38.8,96,93,89,29.95,29.56,31,14,31,1.97
2013-4-12,44.8,40.0,37.4,39.9,34.1,28.1,95,80,62,29.81,29.52,27,10,27,0.12
2013-4-13,45.9,39.4,34.0,32.6,27.9,22.6,82,65,43,29.94,29.78,27,9,27,0.00
2013-4-14,61.5,47.7,37.2,44.7,35.1,25.6,75,63,51,30.02,29.76,26,12,26,0.04
2013-4-15,67.3,58.5,50.0,53.4,47.7,40.8,84,68,60,29.97,29.75,30,9,30,0.00
2013-4-16,56.7,48.6,43.2,47.2,37.8,21.8,91,69,35,30.23,29.92,20,7,20,0.56
2013-4-17,54.3,48.9,44.2,45.5,38.1,31.6,94,67,59,30.22,29.88,35,13,35,1.31
2013-4-18,77.7,60.7,46.2,62.5,54.8,42.8,93,82,60,29.88,29.49,36,13,36,0.91
2013-4-19,59.9,39.6,33.6,57.9,30.5,23.9,93,70,59,29.81,29.45,36,16,36,0.77
2013-4-20,45.3,37.5,32.0,27.7,15.6,-0.2,79,46,19,30.35,29.78,23,10,23,0.01
2013-4-21,51.3,40.1,28.9,29.1,18.0,7.6,60,44,25,30.53,30.30,23,9,23,0.00
2013-4-22,64.8,50.7,34.0,35.2,24.4,4.1,72,45,14,30.37,30.17,20,8,20,0.00
2013-4-23,68.5,53.9,41.5,54.2,43.1,34.1,94,70,44,30.17,29.87,24,8,24,0.70
2013-4-24,47.5,39.9,35.6,39.9,29.4,8.2,95,70,24,30.13,28.34,27,9,27,0.22
2013-4-25,53.6,44.0,35.8,34.1,27.5,10.0,76,56,21,30.35,30.04,24,8,24,0.00
2013-4-26,64.8,49.9,34.7,37.4,29.9,25.5,72,51,28,30.46,30.27,21,6,21,0.00
2013-4-27,69.6,57.5,43.9,46.6,33.7,13.0,69,47,15,30.37,30.08,23,7,23,0.00
2013-4-28,60.4,55.9,51.4,54.9,51.3,45.7,96,85,63,30.08,29.83,14,4,14,0.13
2013-4-29,73.8,61.9,52.3,59.6,51.1,45.9,99,72,43,30.04,29.85,17,6,17,0.00
2013-4-30,81.9,67.5,54.3,59.1,53.7,49.1,83,64,43,30.06,29.85,24,11,24,0.01
2013-5-1,85.5,73.3,59.0,57.6,51.4,43.5,74,51,29,30.22,30.03,21,7,21,0.00
2013-5-2,84.0,71.3,56.5,56.2,51.7,43.2,77,54,30,30.24,29.96,24,8,24,0.00
2013-5-3,78.8,65.6,49.5,56.5,49.5,44.2,83,60,40,30.14,28.34,27,10,27,0.00
2013-5-4,73.9,66.0,59.5,45.9,38.7,20.9,58,41,18,30.08,30.00,27,12,27,0.00
2013-5-5,72.5,63.3,52.3,44.8,41.5,35.9,68,48,30,30.08,30.02,25,8,25,0.00
2013-5-6,78.8,66.0,55.9,52.0,42.9,35.4,62,46,29,30.06,29.89,15,5,15,0.00
2013-5-7,77.4,67.6,55.4,51.5,47.7,43.0,72,52,34,30.06,29.88,17,4,17,0.00
2013-5-8,87.3,70.7,57.0,52.9,46.8,38.1,78,48,24,30.07,29.84,14,3,14,0.00
2013-5-9,85.1,67.2,53.2,57.9,48.9,34.0,88,57,22,30.04,29.84,19,4,19,0.04
2013-5-10,68.7,58.6,44.4,61.3,53.5,43.8,99,85,55,29.92,29.75,22,10,22,0.20
2013-5-11,60.4,47.4,39.6,53.3,41.2,30.5,99,81,51,29.92,29.76,35,8,35,0.26
2013-5-12,54.0,43.9,35.2,34.7,26.6,14.8,88,55,25,29.98,29.85,28,9,28,0.02
2013-5-13,63.1,50.6,35.6,31.5,16.8,-4.1,78,38,10,30.22,29.93,19,5,19,0.00
2013-5-14,90.1,68.8,50.9,58.3,38.2,22.0,59,38,17,30.12,29.68,26,9,26,0.00
2013-5-15,86.9,77.1,66.6,59.3,48.6,36.1,69,42,21,29.88,29.68,24,9,24,0.02
2013-5-16,88.7,73.2,57.6,50.5,34.7,10.7,74,36,10,30.01,29.74,15,3,15,0.00
2013-5-17,84.7,70.2,57.4,61.1,44.1,20.9,80,44,14,30.12,29.88,22,8,22,0.00
2013-5-18,83.1,70.1,59.5,57.0,47.6,35.4,62,47,39,30.15,30.00,17,7,17,0.00
2013-5-19,89.4,75.8,60.4,62.1,55.3,47.8,67,52,34,30.07,29.82,21,6,21,0.00
2013-5-20,90.1,79.5,70.3,69.8,63.4,56.4,89,61,37,29.92,29.72,27,10,27,0.01
2013-5-21,86.2,75.2,63.9,68.0,61.9,57.2,98,67,44,29.92,29.63,34,9,34,0.33
2013-5-22,78.3,70.1,62.8,65.7,61.4,53.9,94,75,53,29.82,29.55,26,7,26,0.12
2013-5-23,62.6,54.3,45.7,58.9,51.4,41.3,96,90,82,30.16,29.78,21,9,21,0.13
2013-5-24,64.2,51.5,39.2,41.9,34.5,21.8,96,60,24,30.42,30.16,17,7,17,0.00
2013-5-25,69.8,55.5,40.6,43.9,37.4,31.3,92,58,28,30.35,30.26,12,4,12,0.00
2013-5-26,72.5,61.0,48.6,48.0,35.9,23.5,75,46,20,30.31,30.22,20,8,20,0.00
2013-5-27,62.8,56.5,50.9,57.6,50.6,34.5,99,83,39,30.25,29.89,26,13,26,0.59
2013-5-28,81.9,70.8,57.2,67.3,63.8,56.9,99,80,60,30.01,29.75,36,9,36,0.56
2013-5-29,87.1,74.7,63.7,68.2,63.0,59.4,94,70,44,30.04,29.88,22,7,22,0.11
2013-5-30,87.4,78.1,69.1,66.4,63.3,60.1,82,63,43,30.09,29.82,31,10,31,0.05
2013-5-31,79.0,71.4,64.8,68.3,65.0,59.8,94,81,65,30.04,29.76,36,9,36,0.57
2013-6-1,75.4,69.4,64.4,66.8,63.0,60.3,98,82,62,29.91,29.75,26,8,26,0.60
2013-6-2,68.5,60.5,47.3,63.6,51.9,39.5,93,75,54,30.06,29.77,23,9,23,0.01
2013-6-3,54.9,46.7,43.7,46.6,43.0,41.1,97,87,66,30.08,30.01,11,4,11,0.00
2013-6-5,78.8,72.0,54.9,49.3,44.7,35.8,65,40,32,30.08,29.88,19,9,19,0.00
2013-6-6,79.0,66.4,59.2,53.9,46.3,36.6,72,51,32,30.03,29.77,15,7,15,0.00
2013-6-7,77.0,65.4,55.8,53.7,50.3,45.5,88,62,39,29.95,29.76,17,6,17,0.00
2013-6-8,79.9,67.8,53.8,54.2,49.2,44.1,87,56,32,30.08,29.88,13,3,13,0.00
2013-6-9,83.1,72.9,65.1,63.2,56.6,49.4,88,60,36,30.11,29.89,24,7,24,0.11
2013-6-10,85.5,71.6,64.4,69.4,63.7,58.0,99,79,44,29.94,29.67,17,6,17,0.96
2013-6-11,88.7,73.1,61.0,67.8,61.6,57.8,99,72,39,29.97,29.85,16,5,16,0.00
2013-6-12,91.8,76.4,67.3,73.5,68.2,62.6,96,78,51,29.98,27.69,21,5,21,0.81
2013-6-13,79.0,69.3,59.2,67.3,55.9,43.1,97,68,32,30.05,29.60,29,11,29,0.11
2013-6-14,84.4,68.9,55.0,57.3,53.9,44.5,95,64,30,30.12,30.03,17,5,17,0.00
2013-6-15,77.9,67.8,59.9,64.8,59.6,55.1,93,77,52,30.16,29.99,16,4,16,0.04
2013-6-16,86.4,75.4,66.4,66.1,64.1,61.0,93,71,47,30.01,29.96,17,6,17,0.01
2013-6-17,91.2,78.6,67.1,67.8,59.5,47.7,97,60,27,30.02,29.94,26,3,26,0.00
2013-6-18,80.8,70.7,64.2,62.6,57.0,51.3,87,65,41,30.11,29.97,17,6,17,0.00
2013-6-19,82.8,69.0,55.4,51.3,43.8,30.2,68,45,22,30.20,30.10,12,4,12,0.00
2013-6-20,86.9,74.1,59.7,64.2,55.3,47.2,75,55,34,30.24,30.15,11,4,11,0.00
2013-6-21,89.6,77.5,66.6,67.6,59.9,49.7,81,59,30,30.26,30.04,21,6,21,0.00
2013-6-22,92.5,76.5,68.4,72.2,67.4,63.6,90,75,51,30.19,30.07,16,4,16,0.00
2013-6-23,90.7,78.1,66.4,69.4,64.5,59.8,92,67,39,30.17,30.07,17,6,17,0.00
2013-6-24,88.0,76.2,66.7,70.8,65.7,60.3,96,74,44,30.14,30.01,35,6,35,0.31
2013-6-25,90.5,76.8,67.5,74.0,68.6,64.6,95,78,50,30.07,29.86,29,6,29,0.19
2013-6-26,87.6,73.6,67.8,72.3,67.4,62.7,97,83,48,29.99,29.76,24,6,24,0.59
2013-6-27,89.1,76.7,66.7,72.4,67.1,62.1,99,76,44,29.85,29.75,19,5,19,0.01
2013-6-28,83.8,74.2,65.3,67.3,61.1,53.8,96,68,41,29.78,29.62,26,8,26,0.00
2013-6-29,80.2,67.5,62.8,65.0,62.2,57.1,97,85,51,29.80,29.65,18,5,18,0.22
2013-6-30,81.5,69.1,62.6,63.4,59.5,53.9,97,74,42,30.01,29.80,21,7,21,0.18
2013-7-1,78.3,67.1,59.9,61.3,52.0,42.9,84,60,43,30.09,30.01,24,9,24,0.01
2013-7-2,68.7,63.5,57.0,64.9,58.5,49.6,99,85,58,30.10,30.05,18,6,18,0.39
2013-7-3,81.9,72.2,64.6,66.5,63.2,57.9,99,77,48,30.23,30.05,21,6,21,0.00
2013-7-4,84.0,71.3,60.3,69.8,60.1,52.5,99,72,41,30.19,30.12,11,2,11,0.00
2013-7-5,86.4,75.4,65.3,68.4,64.1,59.4,91,70,44,30.17,30.11,11,3,11,0.00
2013-7-6,80.4,73.7,68.5,70.1,66.7,62.5,93,80,61,30.19,30.09,18,4,18,0.00
2013-7-7,86.4,75.4,66.2,70.5,67.4,64.4,96,79,53,30.14,30.07,14,5,14,0.00
2013-7-8,84.2,76.4,70.5,73.2,69.8,67.1,91,81,63,30.11,28.56,15,5,16,0.07
2013-7-9,91.8,80.6,73.0,75.8,72.9,69.5,96,79,52,30.10,29.98,19,5,19,0.02
2013-7-10,84.4,76.8,64.6,75.5,68.3,51.0,94,77,45,30.08,29.91,38,6,38,0.28
2013-7-11,84.7,71.5,60.3,60.4,52.0,44.3,83,56,31,30.14,30.06,17,6,17,0.00
2013-7-12,85.5,74.8,60.6,60.1,53.5,46.3,79,52,32,30.20,30.13,16,5,16,0.00
2013-7-13,85.3,74.8,62.6,65.4,59.2,54.5,82,61,43,30.25,30.19,20,7,20,0.00
2013-7-14,89.6,78.7,66.6,71.5,66.4,62.6,95,69,45,30.30,30.24,17,8,17,0.00
2013-7-15,95.5,83.7,73.0,73.5,70.8,67.2,94,69,44,30.36,30.30,15,4,15,0.00
2013-7-16,95.9,84.8,74.3,73.5,69.2,64.8,89,64,40,30.41,30.35,11,3,11,0.00
2013-7-17,97.3,85.3,74.3,72.1,69.5,65.9,88,63,40,30.42,30.26,14,4,14,0.00
2013-7-18,97.7,85.5,74.5,75.2,71.1,66.3,91,67,40,30.32,30.07,16,4,16,0.00
2013-7-19,96.3,85.4,75.7,74.2,71.4,66.1,92,67,42,30.12,29.88,24,8,24,0.00
2013-7-20,92.8,83.3,74.7,74.0,64.3,53.9,89,58,32,30.02,29.90,17,6,17,0.00
2013-7-21,90.9,78.6,67.8,67.7,62.1,57.9,84,60,38,30.08,29.97,14,5,14,0.00
2013-7-22,87.6,74.7,66.6,69.8,65.5,61.1,99,76,46,29.99,29.82,20,6,20,0.20
2013-7-23,85.8,73.1,60.1,69.1,62.1,51.8,96,71,47,30.00,29.78,27,8,27,0.04
2013-7-24,76.8,65.0,52.3,54.5,48.9,41.7,92,61,33,30.11,29.99,17,6,17,0.00
2013-7-25,83.7,70.8,57.7,56.8,52.7,44.5,90,58,31,30.17,30.08,14,4,14,0.00
2013-7-26,79.0,69.1,59.9,63.0,57.5,54.5,84,69,47,30.16,29.97,16,4,16,0.00
2013-7-27,77.4,66.8,56.5,65.4,58.2,47.6,96,76,50,29.99,29.91,26,7,26,0.14
2013-7-28,70.0,59.4,50.2,54.6,49.1,43.6,93,72,43,30.08,29.92,19,6,19,0.00
2013-7-29,77.2,64.6,53.8,56.1,52.4,48.4,87,68,44,30.25,30.06,18,5,18,0.00
2013-7-30,81.9,69.1,57.6,62.4,56.7,52.3,96,68,40,30.25,30.14,11,3,11,0.00
2013-7-31,78.6,70.4,64.4,69.7,65.1,61.5,98,84,68,30.18,29.97,16,4,16,0.20
2013-8-1,83.1,71.0,62.4,67.9,57.1,44.4,99,69,31,30.04,29.99,22,6,22,0.00
2013-8-2,83.5,65.5,57.7,68.7,60.9,52.5,98,86,61,30.05,29.85,21,4,21,0.66
2013-8-3,84.6,71.0,62.8,68.8,57.7,42.0,99,70,29,30.16,29.98,22,5,22,0.00
2013-8-4,80.4,68.7,57.9,57.3,51.0,41.1,91,59,29,30.25,30.16,17,6,17,0.00
2013-8-5,77.7,67.0,56.3,60.6,55.5,50.3,84,68,51,30.21,30.00,14,4,14,0.00
2013-8-6,82.0,69.7,62.8,68.4,64.4,60.3,97,84,61,30.02,29.91,12,4,12,0.33
2013-8-7,87.3,74.0,68.4,74.0,68.9,65.0,99,86,57,29.99,29.85,24,4,24,0.32
2013-8-8,82.6,72.7,64.8,69.1,63.8,60.0,98,76,53,30.06,29.96,18,6,18,0.00
2013-8-9,86.4,74.0,64.2,63.4,58.6,50.3,84,63,36,30.11,30.03,14,4,14,0.00
2013-8-10,85.8,74.5,67.3,66.2,61.4,54.6,91,67,42,30.19,30.10,19,4,19,1.03
2013-8-11,85.8,73.6,61.9,63.0,57.4,50.6,83,61,34,30.25,30.15,14,3,14,0.00
2013-8-12,87.6,74.6,64.6,67.8,63.6,60.1,95,72,44,30.16,29.93,19,4,19,0.13
2013-8-13,73.2,65.0,56.5,65.8,52.1,38.1,98,68,32,30.15,29.98,24,8,24,0.01
2013-8-14,75.2,61.6,49.8,48.4,45.4,39.2,86,60,32,30.23,30.15,13,5,15,0.00
2013-8-15,79.5,67.8,50.7,54.0,49.3,43.2,88,56,36,30.23,30.13,12,2,12,0.00
2013-8-16,81.0,69.1,56.5,56.3,51.5,44.1,89,58,32,30.26,30.17,13,3,13,0.00
2013-8-17,80.1,69.1,57.0,57.9,53.0,44.4,93,61,35,30.32,30.25,16,5,16,0.00
2013-8-18,86.0,72.8,59.7,62.0,55.5,48.7,83,60,34,30.29,30.19,11,3,11,0.00
2013-8-19,89.2,74.1,61.5,63.4,59.4,55.3,91,65,36,30.21,30.13,12,3,12,0.00
2013-8-20,88.3,75.7,63.1,66.4,62.4,57.9,94,68,40,30.23,30.13,12,2,12,0.00
2013-8-21,89.8,78.7,66.4,68.6,64.6,59.0,91,66,41,30.21,30.09,14,4,14,0.00
2013-8-22,81.7,72.6,67.3,72.1,67.4,65.2,97,84,60,30.20,30.02,27,5,27,0.34
2013-8-23,85.8,75.6,65.7,67.4,57.7,42.8,99,62,27,30.25,30.14,14,5,14,0.34
2013-8-24,83.5,71.6,58.8,57.5,52.3,44.6,82,55,30,30.36,30.24,16,5,16,0.00
2013-8-25,90.1,75.0,60.1,64.1,59.4,55.7,89,63,36,30.37,30.25,14,4,14,0.00
2013-8-26,93.4,77.6,65.1,70.1,65.0,59.9,85,68,44,30.29,30.11,17,5,17,0.00
2013-8-27,99.5,83.7,71.4,72.3,69.0,66.5,91,65,40,30.12,29.95,15,5,15,0.00
2013-8-28,91.2,83.2,73.4,73.5,69.1,65.5,85,64,48,30.11,29.94,16,7,16,0.00
2013-8-29,91.2,78.2,67.5,71.4,65.8,60.1,99,71,41,30.14,30.08,11,3,11,0.00
2013-8-30,92.8,80.4,66.9,72.8,67.6,63.7,95,69,43,30.10,29.85,27,5,27,0.00
2013-8-31,85.5,75.5,70.0,72.5,69.7,65.5,94,84,54,29.95,29.85,18,4,18,0.07
2013-9-1,87.1,75.1,67.5,70.5,68.9,66.5,99,83,55,29.90,29.84,12,3,12,0.00
2013-9-2,82.4,72.5,59.4,69.9,60.5,51.6,96,70,39,30.04,29.83,23,7,23,0.00
2013-9-3,78.6,65.1,52.9,55.4,52.4,49.3,92,68,41,30.13,30.01,17,4,17,0.00
2013-9-4,85.5,68.8,54.5,59.0,52.0,36.1,97,63,23,30.20,30.11,17,4,17,0.00
2013-9-5,82.2,69.4,60.8,57.9,44.2,14.0,87,48,12,30.31,30.19,16,4,16,0.00
2013-9-6,84.2,68.1,53.6,56.2,49.0,39.4,78,55,25,30.30,30.14,14,5,14,0.00
2013-9-7,92.5,74.3,61.3,65.5,59.2,52.9,83,63,35,30.14,30.00,17,3,17,0.00
2013-9-8,76.1,71.8,67.3,67.0,64.1,62.0,93,78,66,30.12,30.02,17,6,17,0.00
2013-9-9,93.6,76.1,63.7,72.5,63.8,54.4,85,69,43,30.10,29.96,17,7,17,0.00
2013-9-10,102.4,86.3,73.4,72.8,65.6,56.1,92,58,28,30.13,30.00,24,6,24,0.00
2013-9-11,97.0,81.5,71.4,70.8,66.8,58.3,93,66,32,30.15,30.03,26,6,26,0.00
2013-9-12,87.8,72.7,61.7,69.3,59.9,41.2,99,70,24,30.08,29.88,21,6,21,0.18
2013-9-16,71.6,62.6,52.7,55.0,47.2,40.1,93,61,36,30.37,30.23,14,5,14,0.00
2013-9-17,70.9,58.4,45.1,49.1,45.6,42.8,96,66,41,30.37,29.85,17,6,17,0.00
2013-9-18,84.0,68.2,55.9,59.5,52.4,44.7,84,61,36,30.21,30.02,18,6,18,0.00
2013-9-19,72.1,68.1,65.1,69.7,66.3,60.0,99,94,77,30.10,29.90,15,6,15,0.00
2013-9-20,75.6,71.4,64.6,70.1,67.0,57.6,97,87,72,29.96,29.78,18,6,18,0.01
2013-9-21,70.2,60.8,52.2,60.0,50.2,40.7,98,72,39,29.94,29.79,25,7,25,0.05
2013-9-22,69.4,58.7,48.7,49.9,43.6,37.0,86,61,34,30.09,29.93,20,4,20,0.00
2013-9-23,68.7,55.6,43.5,45.9,43.1,40.8,93,67,40,30.16,30.05,19,6,19,0.00
2013-9-24,73.9,58.7,46.6,48.8,44.3,38.9,93,64,33,30.12,29.95,17,7,17,0.00
2013-9-25,75.9,61.4,50.4,53.1,47.5,40.8,97,66,33,30.06,29.93,14,5,14,0.00
2013-9-26,80.6,64.8,51.6,54.1,45.5,30.7,96,59,20,30.17,30.02,18,4,18,0.00
2013-9-27,79.3,65.7,53.2,52.6,45.8,39.7,72,53,30,30.24,30.12,19,7,19,0.00
2013-9-28,82.8,67.7,52.9,55.1,51.4,44.9,95,62,30,30.20,30.06,22,7,22,0.00
2013-9-29,72.0,64.7,55.2,59.6,53.9,46.3,96,71,45,30.08,30.02,17,5,17,0.01
2013-9-30,75.4,60.2,46.9,56.4,50.6,46.4,99,75,43,30.06,29.95,16,3,17,0.00
2013-10-1,77.2,64.7,57.2,63.2,59.7,51.7,98,85,57,30.09,29.99,16,5,16,0.00
2013-10-2,86.7,72.3,63.7,68.5,62.4,55.6,99,76,40,30.14,30.03,10,3,10,0.01
2013-10-3,80.4,68.8,63.9,70.3,65.2,59.7,99,89,60,30.11,29.92,17,4,17,0.18
2013-10-4,84.6,73.0,64.4,70.5,66.0,62.3,95,81,54,30.09,29.99,13,4,13,0.00
2013-10-5,79.2,70.1,66.2,72.7,67.4,63.4,99,92,72,30.08,29.90,34,5,34,0.40
2013-10-6,68.2,60.4,46.9,67.3,54.7,39.3,99,83,55,29.93,29.75,20,6,20,0.43
2013-10-7,63.5,51.1,42.4,48.3,42.5,38.9,96,75,44,30.12,29.75,20,6,20,0.00
2013-10-8,75.4,58.9,45.9,50.6,44.9,40.8,94,65,33,30.25,30.10,17,5,17,0.00
2013-10-9,72.3,59.6,45.7,47.2,41.9,31.7,88,57,26,30.32,30.19,18,5,18,0.00
2013-10-10,83.3,63.3,48.9,50.2,44.3,35.3,87,57,23,30.19,29.85,13,4,13,0.00
2013-10-11,78.8,62.4,48.7,47.7,43.2,30.5,91,57,22,30.12,30.04,14,4,14,0.00
2013-10-12,81.5,65.7,52.3,62.7,52.5,46.3,96,68,33,30.19,30.03,19,5,19,0.00
2013-10-13,69.3,58.2,46.2,60.0,42.7,30.0,88,62,27,30.39,30.19,21,5,21,0.00
2013-10-14,68.0,53.9,43.5,45.8,41.8,36.5,98,68,34,30.38,30.20,16,6,16,0.00
2013-10-15,65.3,56.9,48.0,62.1,52.9,43.3,97,87,79,30.21,29.87,21,9,21,0.00
2013-10-16,62.8,52.0,45.0,61.0,46.3,41.8,95,81,70,29.98,29.87,18,6,18,0.00
2013-10-17,53.6,48.8,42.3,48.5,45.1,40.1,94,87,72,29.94,29.81,22,5,22,0.00
2013-10-18,64.4,47.8,38.7,44.4,40.1,36.8,99,78,43,30.00,29.80,23,6,23,0.00
2013-10-19,55.9,45.7,41.5,43.7,37.3,28.5,99,76,40,29.94,29.76,22,5,22,0.00
2013-10-20,64.6,51.6,38.5,40.9,37.6,32.4,87,62,35,29.88,29.76,22,7,22,0.00
2013-10-21,56.1,49.6,38.7,47.0,38.7,26.1,85,67,52,29.96,29.78,21,8,21,0.00
2013-10-22,51.4,38.1,30.4,33.7,24.6,7.0,90,64,20,29.97,29.83,18,5,18,0.00
2013-10-23,47.1,38.3,33.6,41.2,32.1,21.7,99,80,43,29.98,29.76,24,6,24,0.00
2013-10-24,45.5,37.1,32.4,36.3,29.5,25.2,86,74,55,30.18,29.90,26,5,26,0.06
2013-10-25,51.4,39.6,28.6,33.2,24.9,15.9,83,60,28,30.39,30.07,22,5,22,0.00
2013-10-26,56.1,45.0,39.2,36.3,29.4,24.2,72,56,44,30.07,29.79,27,12,27,1.44
2013-10-27,58.3,44.3,31.6,34.4,26.5,18.0,84,56,26,30.04,29.94,16,4,16,0.00
2013-10-28,63.5,46.0,32.7,37.1,30.8,25.3,82,59,29,30.32,29.97,11,3,11,0.00
2013-10-29,55.4,44.4,34.0,40.2,36.4,30.2,91,75,51,30.35,30.16,16,6,16,0.00
2013-10-30,61.7,53.1,42.4,60.4,47.8,38.0,99,83,72,30.17,29.90,17,6,17,0.00
2013-10-31,63.9,60.9,53.2,63.0,59.8,52.1,99,96,91,29.91,29.31,27,12,27,0.00
2013-11-1,52.9,48.0,45.0,52.1,42.1,37.3,97,81,62,29.70,29.36,30,10,30,0.00
2013-11-2,50.4,45.0,42.1,45.2,41.3,35.9,99,87,66,30.01,29.65,24,6,24,0.00
2013-11-3,49.8,43.4,39.7,39.4,36.4,34.3,90,77,61,30.28,30.00,17,7,17,0.00
2013-11-4,54.0,46.1,37.8,41.8,36.2,33.2,87,70,51,30.34,30.21,24,11,24,0.00
2013-11-5,57.2,52.9,49.6,47.9,43.5,41.2,81,71,64,30.35,30.08,21,7,21,0.00
2013-11-6,57.9,51.6,41.7,53.1,46.9,37.8,96,85,58,30.08,29.82,30,12,30,0.00
2013-11-7,50.2,40.5,32.2,37.9,28.3,17.1,84,64,32,30.21,30.00,21,8,21,0.00
2013-11-8,57.4,40.9,29.3,36.0,28.5,20.9,91,66,32,30.30,30.04,16,5,16,0.00
2013-11-9,62.2,50.8,43.2,37.5,33.0,27.2,66,52,36,30.04,29.85,34,13,34,1.69
2013-11-10,48.2,41.3,33.4,36.1,27.8,23.2,75,60,48,30.26,29.95,25,9,25,0.00
2013-11-11,47.1,38.6,28.8,37.8,29.8,18.0,92,72,55,30.28,30.04,20,8,20,0.12
2013-11-12,35.1,28.3,23.9,25.8,16.9,12.4,75,63,49,30.56,30.28,18,6,18,0.00
2013-11-13,38.7,28.7,18.9,16.6,13.6,8.5,75,55,35,30.51,30.14,23,9,23,0.00
2013-11-14,53.1,39.6,29.7,23.4,15.6,3.9,58,42,17,30.15,29.96,27,12,27,0.00
2013-11-15,59.7,46.9,37.2,31.4,25.8,16.6,63,46,24,30.03,29.93,19,6,19,0.00
2013-11-16,58.1,49.7,39.4,56.2,44.7,29.5,94,83,63,29.95,29.67,30,12,30,0.18
2013-11-17,63.5,57.7,45.9,60.1,52.7,35.2,95,84,62,29.68,29.24,47,17,47,1.58
2013-11-18,45.7,39.9,36.1,36.2,29.7,22.1,82,68,53,30.12,29.63,31,13,31,0.01
2013-11-19,47.3,37.7,31.3,25.7,22.9,20.5,71,56,40,30.32,30.10,17,5,17,0.00
2013-11-20,44.1,36.6,29.1,31.9,25.6,21.5,75,65,49,30.30,30.10,24,10,24,0.00
2013-11-21,47.5,45.2,41.9,45.2,40.0,31.6,95,83,64,30.21,30.08,18,6,18,0.63
2013-11-22,46.8,45.3,42.3,45.7,44.5,40.1,99,97,93,30.23,30.07,15,5,15,0.02
2013-11-26,33.8,30.7,26.1,25.0,22.7,17.9,82,72,64,30.05,29.93,18,6,18,0.00
2013-11-27,27.0,24.4,21.2,19.6,16.2,12.9,76,71,64,30.14,29.85,17,6,17,0.00
2013-11-28,34.5,26.5,21.4,15.7,12.2,8.8,65,55,40,30.33,30.13,16,5,16,0.00
2013-11-29,38.5,31.4,26.1,18.8,15.6,11.4,64,53,38,30.59,30.33,15,5,15,0.00
2013-11-30,51.1,37.5,28.6,26.7,22.9,18.2,71,57,40,30.38,30.00,21,6,23,0.00
2013-12-1,48.7,37.6,31.6,35.2,25.9,21.6,72,63,55,30.04,29.19,14,4,14,0.00
2013-12-2,46.9,35.1,30.2,32.2,26.3,22.7,81,71,48,29.90,29.74,19,7,19,0.02
2013-12-3,57.0,43.7,34.0,45.9,38.0,28.9,91,81,64,29.80,29.68,20,9,20,0.14
2013-12-4,59.7,51.2,44.6,55.2,48.1,41.3,96,89,83,29.78,29.60,24,10,24,0.00
2013-12-5,59.4,35.8,26.2,54.5,25.5,12.9,84,66,55,30.15,29.62,27,11,27,0.00
2013-12-9,27.0,20.0,13.3,17.1,6.4,-1.6,69,55,49,30.12,30.03,24,11,24,0.00
2013-12-10,24.3,13.6,1.6,5.3,-2.7,-11.5,56,48,40,30.17,29.99,32,10,32,0.01
2013-12-11,23.7,17.1,9.0,15.6,5.5,-6.4,77,60,44,30.39,30.16,22,8,22,0.00
2013-12-12,22.1,9.3,-4.0,2.8,-7.3,-17.6,54,47,33,30.40,30.15,21,8,21,0.00
2013-12-16,20.8,17.4,9.7,11.2,7.5,-0.6,72,65,56,30.11,29.91,14,5,14,0.00
2013-12-17,27.0,21.3,16.7,20.1,14.6,9.8,79,75,69,29.99,29.88,21,8,21,0.00
2013-12-18,33.4,22.4,15.1,17.8,9.3,4.7,70,57,48,30.15,29.81,20,8,20,0.00
2013-12-19,42.6,38.7,33.4,36.6,29.4,17.6,87,70,52,29.95,29.76,19,6,19,0.00
2013-12-20,45.5,42.1,36.5,43.9,40.0,34.1,95,92,85,29.79,29.66,13,3,13,0.51
2013-12-21,36.5,34.6,33.3,34.1,32.3,30.8,92,91,90,29.78,29.42,21,5,21,1.13
2013-12-22,36.7,33.6,30.6,32.5,30.5,26.9,91,88,81,29.94,29.39,19,6,21,0.20
2013-12-23,31.1,23.2,6.3,26.9,13.9,-6.3,86,68,51,30.32,29.94,0,0,0,0.00
2013-12-24,21.2,10.2,1.9,7.0,-1.9,-10.5,65,57,48,30.48,30.27,14,1,14,0.00
2013-12-25,26.1,22.5,16.7,20.8,13.2,6.4,80,67,58,30.32,29.99,23,9,23,0.00
2013-12-26,32.5,25.9,18.0,22.1,15.7,6.2,81,66,45,30.25,28.48,22,8,22,0.00
2013-12-27,43.3,36.0,29.3,29.4,25.6,21.9,76,66,54,30.28,30.04,22,8,22,0.00
2013-12-28,50.5,40.8,33.8,32.3,28.7,25.5,73,63,49,30.07,29.81,19,8,19,0.00
2013-12-29,44.2,33.6,23.0,29.1,23.3,14.4,81,66,54,29.97,29.69,27,10,27,0.00
2013-12-30,23.4,18.5,13.6,14.4,5.0,0.7,69,56,43,30.26,29.97,21,8,24,0.00
2013-12-31,17.6,13.7,9.0,7.5,2.4,-2.5,70,61,44,30.31,30.03,19,7,19,0.00
2014-1-1,20.5,16.8,13.1,10.6,8.2,4.9,71,68,60,30.24,30.05,18,7,18,0.00
2014-1-2,14.7,12.2,2.8,5.9,0.6,-13.4,70,60,40,30.25,29.93,27,11,27,0.00